Time;durP1;ratioP1;P1;durP2;ratioP2;P2;SDS_P1;SDS_P2;PMS_P1;PMS_P2;Temp;Humidity;BMP_temperature;BMP_pressure;BME280_temperature;BME280_humidity;BME280_pressure;Samples;Min_cycle;Max_cycle;Signal;HPM_P1;HPM_P2
2021/01/25 00:00:26;;;;;;;3.05;1.75;;;23.40;43.70;;;;;;5051883;28;45494;-56
2021/01/25 00:02:52;;;;;;;3.97;1.80;;;23.30;43.60;;;;;;5063189;28;45495;-55
2021/01/25 00:05:18;;;;;;;3.75;2.03;;;23.40;43.70;;;;;;5042098;28;45423;-56
2021/01/25 00:07:44;;;;;;;3.55;2.00;;;23.30;43.70;;;;;;5049509;28;46373;-55
2021/01/25 00:10:10;;;;;;;3.85;1.90;;;23.30;43.60;;;;;;5033027;28;45352;-55
2021/01/25 00:12:35;;;;;;;4.03;1.50;;;23.30;43.60;;;;;;5037117;28;45436;-56
2021/01/25 00:15:01;;;;;;;3.72;2.03;;;23.30;43.60;;;;;;5047998;28;45507;-54
2021/01/25 00:17:27;;;;;;;3.38;1.83;;;23.30;43.70;;;;;;5044656;28;46202;-54
2021/01/25 00:19:53;;;;;;;4.28;1.60;;;23.30;43.70;;;;;;5038620;28;46567;-53
2021/01/25 00:22:18;;;;;;;4.05;1.83;;;23.30;43.60;;;;;;5042727;28;45483;-54
2021/01/25 00:24:44;;;;;;;3.00;1.63;;;23.30;43.60;;;;;;5032931;28;45681;-53
2021/01/25 00:27:10;;;;;;;3.10;1.55;;;23.30;43.70;;;;;;5029841;28;46475;-56
2021/01/25 00:29:35;;;;;;;3.58;1.67;;;23.20;43.70;;;;;;5045330;28;45506;-54
2021/01/25 00:32:01;;;;;;;3.38;1.73;;;23.20;43.70;;;;;;5044037;28;45486;-54
2021/01/25 00:34:27;;;;;;;3.85;1.70;;;23.20;43.70;;;;;;5038697;28;45548;-54
2021/01/25 00:36:53;;;;;;;2.78;1.40;;;23.20;43.70;;;;;;5029464;28;45704;-56
2021/01/25 00:39:19;;;;;;;3.65;2.00;;;23.20;43.70;;;;;;5038729;28;45369;-54
2021/01/25 00:41:45;;;;;;;3.67;2.15;;;23.20;43.70;;;;;;5031028;28;45382;-53
2021/01/25 00:44:10;;;;;;;3.22;1.67;;;23.20;43.70;;;;;;5033338;28;45534;-53
2021/01/25 00:46:36;;;;;;;3.13;1.58;;;23.20;43.80;;;;;;5035020;28;45536;-54
2021/01/25 00:49:02;;;;;;;2.80;1.38;;;23.20;43.80;;;;;;5043225;28;45312;-53
2021/01/25 00:51:28;;;;;;;3.63;1.80;;;23.20;43.80;;;;;;5040857;28;45618;-54
2021/01/25 00:53:54;;;;;;;2.83;1.55;;;23.20;43.90;;;;;;5044515;28;45429;-54
2021/01/25 00:56:19;;;;;;;3.00;1.67;;;23.20;43.90;;;;;;5045951;28;46308;-56
2021/01/25 00:58:45;;;;;;;3.08;1.55;;;23.20;43.90;;;;;;5034474;28;45531;-54
2021/01/25 01:01:11;;;;;;;3.35;1.60;;;23.20;43.90;;;;;;5032642;28;45428;-54
2021/01/25 01:03:37;;;;;;;2.85;1.30;;;23.20;43.90;;;;;;5038845;28;45784;-53
2021/01/25 01:06:03;;;;;;;2.63;1.45;;;23.10;44.00;;;;;;5046537;28;46193;-54
2021/01/25 01:08:28;;;;;;;3.47;1.85;;;23.10;44.00;;;;;;5034967;28;45572;-54
2021/01/25 01:10:54;;;;;;;3.30;1.60;;;23.10;44.00;;;;;;5045408;28;45521;-55
2021/01/25 01:13:20;;;;;;;2.92;1.70;;;23.10;44.00;;;;;;5044977;28;45578;-55
2021/01/25 01:15:46;;;;;;;2.88;1.40;;;23.10;44.00;;;;;;5038800;28;45793;-55
2021/01/25 01:18:11;;;;;;;2.90;1.45;;;23.10;44.00;;;;;;5050132;28;45327;-56
2021/01/25 01:20:37;;;;;;;3.28;1.73;;;23.10;44.10;;;;;;5046317;28;45475;-56
2021/01/25 01:23:03;;;;;;;2.50;1.27;;;23.00;44.00;;;;;;5033275;28;45535;-56
2021/01/25 01:25:28;;;;;;;3.42;1.70;;;23.10;44.10;;;;;;5043282;28;46466;-55
2021/01/25 01:27:54;;;;;;;3.53;1.67;;;23.00;44.00;;;;;;5057741;28;45435;-55
2021/01/25 01:30:20;;;;;;;2.58;1.30;;;23.00;44.10;;;;;;5058754;28;45415;-54
2021/01/25 01:32:46;;;;;;;3.72;1.45;;;23.10;44.10;;;;;;5062907;28;45552;-54
2021/01/25 01:35:12;;;;;;;2.90;1.30;;;23.10;44.10;;;;;;5046586;28;45418;-56
2021/01/25 01:37:37;;;;;;;3.13;1.73;;;23.00;44.10;;;;;;5047440;28;45439;-54
2021/01/25 01:40:07;;;;;;;3.22;1.55;;;23.00;44.10;;;;;;5048043;28;45661;-54
2021/01/25 01:42:33;;;;;;;3.85;1.42;;;23.00;44.20;;;;;;5053695;28;45621;-55
2021/01/25 01:45:01;;;;;;;2.95;1.30;;;23.00;44.20;;;;;;5052796;28;46160;-55
2021/01/25 01:47:27;;;;;;;3.13;1.50;;;23.00;44.30;;;;;;5053201;28;45481;-56
2021/01/25 01:49:53;;;;;;;3.58;1.58;;;22.90;44.20;;;;;;5045267;28;46011;-55
2021/01/25 01:52:19;;;;;;;2.22;1.13;;;22.90;44.20;;;;;;5043676;28;45592;-54
2021/01/25 01:54:44;;;;;;;3.20;1.35;;;22.90;44.20;;;;;;5035601;28;46308;-53
2021/01/25 01:57:10;;;;;;;2.15;1.15;;;22.90;44.30;;;;;;5046002;28;45560;-54
2021/01/25 01:59:36;;;;;;;3.28;1.75;;;22.90;44.30;;;;;;5047779;28;45354;-54
2021/01/25 02:02:02;;;;;;;2.75;1.45;;;22.90;44.30;;;;;;5033565;28;45232;-56
2021/01/25 02:04:28;;;;;;;2.60;1.30;;;22.90;44.30;;;;;;5047766;28;46073;-56
2021/01/25 02:06:54;;;;;;;3.30;1.33;;;22.90;44.30;;;;;;5045619;28;45442;-55
2021/01/25 02:09:20;;;;;;;2.58;1.30;;;22.90;44.30;;;;;;5038560;28;45459;-55
2021/01/25 02:11:46;;;;;;;3.92;1.38;;;22.90;44.30;;;;;;5036853;28;45949;-55
2021/01/25 02:14:11;;;;;;;2.65;1.35;;;22.90;44.30;;;;;;5042671;28;45481;-55
2021/01/25 02:16:39;;;;;;;2.50;1.40;;;22.90;44.30;;;;;;5050388;28;45577;-55
2021/01/25 02:19:06;;;;;;;3.17;1.50;;;22.90;44.30;;;;;;5045010;28;45685;-55
2021/01/25 02:21:31;;;;;;;3.13;1.50;;;22.90;44.30;;;;;;5045847;28;45356;-55
2021/01/25 02:24:35;;;;;;;2.25;1.20;;;22.80;44.30;;;;;;5045980;28;45374;-56
2021/01/25 02:27:30;;;;;;;2.10;1.10;;;22.80;44.30;;;;;;5061439;28;45342;-55
2021/01/25 02:29:56;;;;;;;2.70;1.27;;;22.90;44.40;;;;;;5050880;28;45296;-55
2021/01/25 02:32:22;;;;;;;3.03;1.40;;;22.80;44.50;;;;;;5030909;28;45352;-55
2021/01/25 02:34:48;;;;;;;2.47;1.20;;;22.80;44.50;;;;;;5046484;28;46486;-56
2021/01/25 02:37:13;;;;;;;3.20;1.60;;;22.80;44.40;;;;;;5047931;28;45385;-54
2021/01/25 02:39:39;;;;;;;3.40;1.40;;;22.80;44.40;;;;;;5046635;28;45483;-55
2021/01/25 02:42:05;;;;;;;3.20;1.63;;;22.80;44.40;;;;;;5043591;28;45494;-55
2021/01/25 02:44:30;;;;;;;1.92;0.90;;;22.80;44.40;;;;;;5045587;28;46389;-55
2021/01/25 02:46:57;;;;;;;2.35;1.10;;;22.80;44.50;;;;;;5057558;28;45498;-55
2021/01/25 02:49:23;;;;;;;2.08;0.98;;;22.80;44.40;;;;;;5042578;28;45427;-56
2021/01/25 02:51:49;;;;;;;3.65;1.50;;;22.80;44.50;;;;;;5043782;28;45464;-56
2021/01/25 02:54:14;;;;;;;2.83;1.35;;;22.80;44.50;;;;;;5046801;28;46335;-55
2021/01/25 02:56:40;;;;;;;2.75;1.45;;;22.80;44.50;;;;;;5046431;28;45884;-55
2021/01/25 02:59:06;;;;;;;2.70;1.27;;;22.70;44.50;;;;;;5038920;28;45320;-55
2021/01/25 03:01:31;;;;;;;1.58;0.95;;;22.80;44.50;;;;;;5063488;28;45512;-55
2021/01/25 03:03:57;;;;;;;1.98;0.88;;;22.70;44.50;;;;;;5029891;28;45471;-55
2021/01/25 03:06:23;;;;;;;2.63;1.20;;;22.70;44.50;;;;;;5041436;28;46576;-55
2021/01/25 03:08:48;;;;;;;3.38;1.17;;;22.70;44.40;;;;;;5045146;28;45759;-56
2021/01/25 03:11:18;;;;;;;2.53;1.25;;;22.80;44.50;;;;;;5044165;28;45486;-55
2021/01/25 03:13:43;;;;;;;2.95;1.40;;;22.70;44.40;;;;;;5036536;28;46345;-55
2021/01/25 03:16:13;;;;;;;3.15;1.42;;;22.70;44.40;;;;;;5042803;28;45364;-55
2021/01/25 03:18:39;;;;;;;2.85;1.45;;;22.70;44.40;;;;;;5047263;28;45449;-55
2021/01/25 03:21:05;;;;;;;2.78;1.25;;;22.70;44.40;;;;;;5055402;28;45757;-55
2021/01/25 03:23:30;;;;;;;3.10;1.42;;;22.70;44.40;;;;;;5044110;28;46308;-55
2021/01/25 03:25:56;;;;;;;2.63;1.30;;;22.70;44.40;;;;;;5046844;28;45450;-57
2021/01/25 03:28:22;;;;;;;2.03;1.00;;;22.70;44.40;;;;;;5042632;28;45516;-55
2021/01/25 03:30:47;;;;;;;2.10;1.25;;;22.80;44.40;;;;;;5044339;28;45454;-56
2021/01/25 03:33:13;;;;;;;2.47;1.25;;;22.80;44.40;;;;;;5038943;28;46278;-55
2021/01/25 03:35:39;;;;;;;1.98;0.93;;;22.80;44.40;;;;;;5033864;28;45693;-56
2021/01/25 03:38:04;;;;;;;3.28;1.20;;;22.90;44.40;;;;;;5042195;28;45450;-55
2021/01/25 03:40:30;;;;;;;2.40;1.10;;;23.00;44.30;;;;;;5039858;28;45606;-55
2021/01/25 03:42:56;;;;;;;2.08;1.05;;;23.00;44.20;;;;;;5043519;28;46274;-56
2021/01/25 03:45:22;;;;;;;2.72;1.02;;;23.00;44.10;;;;;;5033253;28;45261;-56
2021/01/25 03:47:48;;;;;;;2.65;1.20;;;23.00;44.00;;;;;;5038322;28;45572;-55
2021/01/25 03:50:14;;;;;;;2.08;1.10;;;23.10;44.00;;;;;;5045417;28;45664;-55
2021/01/25 03:52:40;;;;;;;2.08;1.10;;;23.10;43.90;;;;;;5039532;28;46301;-55
2021/01/25 03:55:07;;;;;;;2.75;1.60;;;23.10;43.90;;;;;;5036468;28;45601;-55
2021/01/25 03:57:33;;;;;;;2.25;1.02;;;23.20;43.80;;;;;;5054115;28;45339;-56
2021/01/25 03:59:59;;;;;;;2.95;1.10;;;23.20;43.80;;;;;;5034566;28;45700;-55
2021/01/25 04:02:25;;;;;;;2.15;0.95;;;23.20;43.70;;;;;;5047256;28;46505;-54
2021/01/25 04:04:51;;;;;;;1.90;1.00;;;23.20;43.70;;;;;;5036297;28;45277;-53
2021/01/25 04:07:16;;;;;;;2.25;1.35;;;23.20;43.70;;;;;;5039441;28;45381;-56
2021/01/25 04:09:42;;;;;;;2.08;0.98;;;23.30;43.60;;;;;;5042438;28;45608;-55
2021/01/25 04:12:08;;;;;;;2.70;1.10;;;23.30;43.60;;;;;;5040666;28;47770;-54
2021/01/25 04:14:34;;;;;;;3.33;1.27;;;23.40;43.60;;;;;;5039597;28;45491;-55
2021/01/25 04:16:59;;;;;;;2.13;1.02;;;23.40;43.60;;;;;;5034976;28;45373;-55
2021/01/25 04:19:25;;;;;;;2.63;1.17;;;23.40;43.60;;;;;;5037526;28;45559;-54
2021/01/25 04:21:51;;;;;;;1.65;0.80;;;23.40;43.50;;;;;;5053251;28;45484;-54
2021/01/25 04:24:16;;;;;;;2.85;1.20;;;23.40;43.40;;;;;;5039893;28;45374;-55
2021/01/25 04:26:42;;;;;;;2.60;1.05;;;23.40;43.40;;;;;;5045484;28;45549;-54
2021/01/25 04:29:11;;;;;;;2.40;1.05;;;23.50;43.30;;;;;;5042020;28;45520;-55
2021/01/25 04:31:37;;;;;;;2.40;1.20;;;23.50;43.30;;;;;;5044732;28;46276;-55
2021/01/25 04:34:04;;;;;;;1.65;0.80;;;23.50;43.30;;;;;;5036357;28;45517;-54
2021/01/25 04:36:29;;;;;;;2.63;1.15;;;23.50;43.90;;;;;;5040345;28;45465;-55
2021/01/25 04:38:55;;;;;;;2.50;0.90;;;23.50;43.30;;;;;;5045388;28;45578;-54
2021/01/25 04:41:21;;;;;;;2.25;1.08;;;23.60;43.30;;;;;;5041745;28;46228;-54
2021/01/25 04:43:47;;;;;;;2.42;1.10;;;23.60;43.30;;;;;;5045026;28;45437;-54
2021/01/25 04:46:13;;;;;;;2.03;1.00;;;23.60;43.30;;;;;;5044925;28;45527;-54
2021/01/25 04:48:39;;;;;;;2.60;1.45;;;23.60;43.40;;;;;;5035898;28;45581;-54
2021/01/25 04:51:04;;;;;;;2.15;0.90;;;23.60;43.30;;;;;;5037093;28;45461;-55
2021/01/25 04:53:30;;;;;;;2.45;1.35;;;23.60;43.40;;;;;;5040925;28;45200;-55
2021/01/25 04:55:56;;;;;;;2.58;1.52;;;23.60;43.40;;;;;;5035523;28;45465;-55
2021/01/25 04:58:21;;;;;;;2.88;1.15;;;23.70;43.40;;;;;;5032818;28;45528;-55
2021/01/25 05:00:47;;;;;;;2.40;1.23;;;23.70;43.30;;;;;;5049551;28;45282;-55
2021/01/25 05:03:13;;;;;;;2.17;1.15;;;23.70;43.20;;;;;;5041929;28;45244;-56
2021/01/25 05:05:38;;;;;;;2.78;1.17;;;23.70;43.30;;;;;;5060169;28;45450;-56
2021/01/25 05:08:04;;;;;;;1.55;0.85;;;23.70;43.30;;;;;;5055379;28;45509;-54
2021/01/25 05:10:30;;;;;;;2.33;1.02;;;23.70;43.70;;;;;;5032645;28;46103;-54
2021/01/25 05:12:56;;;;;;;2.58;1.00;;;23.70;43.10;;;;;;5046044;28;45441;-54
2021/01/25 05:15:31;;;;;;;2.33;1.17;;;23.70;43.10;;;;;;5039180;28;45518;-56
2021/01/25 05:18:00;;;;;;;3.25;1.23;;;23.80;43.00;;;;;;5053007;28;45505;-55
2021/01/25 05:20:29;;;;;;;4.05;1.13;;;23.80;43.00;;;;;;5056562;28;46453;-57
2021/01/25 05:22:56;;;;;;;1.75;0.90;;;23.80;43.00;;;;;;5045772;28;45611;-55
2021/01/25 05:25:40;;;;;;;1.88;0.80;;;23.90;42.90;;;;;;5029715;28;45383;-56
2021/01/25 05:28:23;;;;;;;1.48;0.80;;;23.90;42.90;;;;;;5051160;28;45476;-55
2021/01/25 05:30:49;;;;;;;2.60;1.15;;;23.90;42.80;;;;;;5049438;28;46583;-55
2021/01/25 05:33:25;;;;;;;1.85;1.00;;;24.00;42.90;;;;;;5045462;28;45775;-56
2021/01/25 05:35:54;;;;;;;1.95;1.02;;;24.00;42.80;;;;;;5052445;28;45526;-55
2021/01/25 05:38:21;;;;;;;2.22;1.00;;;24.00;42.80;;;;;;5055127;28;45493;-54
2021/01/25 05:40:54;;;;;;;1.98;0.90;;;24.00;42.70;;;;;;5049652;28;45360;-55
2021/01/25 05:43:20;;;;;;;2.38;1.02;;;24.00;42.70;;;;;;5059075;28;45418;-56
2021/01/25 05:45:46;;;;;;;2.35;1.30;;;24.00;42.70;;;;;;5045246;28;45320;-56
2021/01/25 05:48:14;;;;;;;1.88;1.20;;;24.00;42.70;;;;;;5063713;28;45226;-56
2021/01/25 05:50:41;;;;;;;2.72;1.05;;;24.10;42.70;;;;;;5049122;28;46135;-56
2021/01/25 05:53:13;;;;;;;1.73;0.93;;;24.10;42.70;;;;;;5046258;28;45454;-56
2021/01/25 05:55:40;;;;;;;2.08;1.08;;;24.00;42.70;;;;;;5044221;28;45578;-56
2021/01/25 05:58:05;;;;;;;2.42;1.08;;;24.00;42.70;;;;;;5060652;28;45600;-55
2021/01/25 06:00:32;;;;;;;2.25;0.88;;;23.90;42.80;;;;;;5038580;28;45541;-55
2021/01/25 06:02:58;;;;;;;2.45;1.15;;;24.00;42.80;;;;;;5038777;28;46346;-56
2021/01/25 06:05:36;;;;;;;2.08;1.02;;;24.00;42.80;;;;;;5042644;28;45696;-55
2021/01/25 06:08:14;;;;;;;4.25;1.70;;;24.00;42.80;;;;;;5054938;28;45322;-56
2021/01/25 06:11:21;;;;;;;3.88;0.95;;;24.10;42.90;;;;;;5053136;28;45614;-55
2021/01/25 06:13:57;;;;;;;3.00;1.20;;;24.10;42.70;;;;;;5059609;28;45471;-56
2021/01/25 06:16:28;;;;;;;3.40;1.10;;;24.10;42.70;;;;;;5059347;28;45521;-55
2021/01/25 06:19:01;;;;;;;1.95;0.90;;;24.10;42.70;;;;;;5054729;28;45528;-56
2021/01/25 06:21:29;;;;;;;3.15;1.15;;;24.10;42.70;;;;;;5037018;28;46022;-56
2021/01/25 06:23:55;;;;;;;1.75;0.90;;;24.10;42.70;;;;;;5055321;28;45702;-55
2021/01/25 06:26:25;;;;;;;3.17;0.80;;;24.10;42.70;;;;;;5043645;28;45912;-55
2021/01/25 06:28:51;;;;;;;2.97;0.98;;;24.20;42.70;;;;;;5033946;28;45558;-52
2021/01/25 06:31:20;;;;;;;3.30;0.95;;;24.20;42.70;;;;;;5054391;28;45392;-52
2021/01/25 06:33:47;;;;;;;3.42;1.15;;;24.20;43.00;;;;;;5045439;28;45752;-54
2021/01/25 06:36:17;;;;;;;2.47;0.95;;;24.10;43.10;;;;;;5039117;28;45524;-49
2021/01/25 06:38:43;;;;;;;2.38;0.98;;;24.10;43.50;;;;;;5046446;28;45449;-50
2021/01/25 06:41:10;;;;;;;2.67;1.25;;;24.10;43.60;;;;;;5046160;28;46494;-50
2021/01/25 06:43:39;;;;;;;4.65;1.13;;;24.10;43.70;;;;;;5047261;28;45483;-48
2021/01/25 06:46:05;;;;;;;13.80;2.25;;;24.10;43.90;;;;;;5056119;28;45359;-52
2021/01/25 06:48:31;;;;;;;37.17;4.40;;;24.00;43.90;;;;;;5044491;28;45398;-54
2021/01/25 06:51:00;;;;;;;13.15;2.20;;;24.10;43.60;;;;;;5037665;28;46507;-55
2021/01/25 06:53:26;;;;;;;11.27;3.45;;;24.10;43.10;;;;;;5043709;28;45469;-57
2021/01/25 06:55:58;;;;;;;8.45;1.83;;;24.10;43.30;;;;;;5038425;28;45603;-57
2021/01/25 06:58:27;;;;;;;10.50;2.03;;;24.10;43.00;;;;;;5048850;28;45434;-49
2021/01/25 07:00:53;;;;;;;5.30;1.95;;;24.00;43.00;;;;;;5052195;28;45498;-50
2021/01/25 07:03:22;;;;;;;8.43;1.90;;;24.00;42.70;;;;;;5044232;28;45655;-50
2021/01/25 07:05:51;;;;;;;8.45;1.50;;;24.00;42.40;;;;;;5035163;28;45383;-50
2021/01/25 07:08:26;;;;;;;6.82;1.70;;;23.90;43.30;;;;;;5056421;28;45672;-49
2021/01/25 07:10:59;;;;;;;9.68;1.70;;;24.00;43.40;;;;;;5048484;28;45588;-50
2021/01/25 07:13:29;;;;;;;5.55;1.70;;;23.90;43.60;;;;;;5029414;28;45715;-52
2021/01/25 07:15:55;;;;;;;7.78;1.95;;;23.90;43.80;;;;;;5052327;28;45475;-52
2021/01/25 07:18:21;;;;;;;8.35;2.40;;;23.90;44.00;;;;;;5043222;28;45775;-51
2021/01/25 07:20:48;;;;;;;9.75;1.73;;;23.90;44.10;;;;;;5041678;28;46793;-50
2021/01/25 07:23:19;;;;;;;9.20;2.65;;;23.90;44.30;;;;;;5036479;28;45512;-50
2021/01/25 07:25:58;;;;;;;6.10;1.83;;;23.90;44.30;;;;;;5040656;28;45417;-49
2021/01/25 07:28:25;;;;;;;8.30;2.05;;;24.00;44.40;;;;;;5032897;28;45561;-49
2021/01/25 07:30:51;;;;;;;7.70;1.77;;;23.90;44.30;;;;;;5047632;28;46194;-50
2021/01/25 07:33:17;;;;;;;10.80;2.20;;;24.00;44.50;;;;;;5030814;28;45909;-52
2021/01/25 07:35:43;;;;;;;12.85;2.72;;;24.00;44.60;;;;;;5028657;28;45767;-50
2021/01/25 07:38:10;;;;;;;6.68;2.40;;;24.00;44.70;;;;;;5033411;28;45956;-51
2021/01/25 07:40:35;;;;;;;9.48;2.03;;;24.00;44.80;;;;;;5039278;28;45502;-52
2021/01/25 07:43:03;;;;;;;6.97;2.53;;;24.00;44.10;;;;;;5031717;28;45470;-55
2021/01/25 07:45:29;;;;;;;9.88;3.13;;;24.00;44.50;;;;;;5044008;28;45776;-56
2021/01/25 07:47:54;;;;;;;21.98;2.55;;;24.10;44.30;;;;;;5048189;28;45933;-61
2021/01/25 07:50:20;;;;;;;8.13;2.08;;;24.20;44.20;;;;;;5035558;28;46063;-60
2021/01/25 07:53:02;;;;;;;23.90;5.30;;;24.30;44.10;;;;;;5031934;28;46021;-60
2021/01/25 07:55:28;;;;;;;17.55;3.00;;;24.50;44.40;;;;;;5048885;28;46357;-59
2021/01/25 07:58:07;;;;;;;18.13;3.00;;;24.40;44.40;;;;;;5037306;28;45856;-59
2021/01/25 08:00:33;;;;;;;12.02;3.10;;;24.50;44.50;;;;;;5035124;28;45799;-60
2021/01/25 08:03:16;;;;;;;12.93;2.65;;;24.50;44.20;;;;;;5038320;28;45812;-60
2021/01/25 08:05:42;;;;;;;10.48;3.00;;;24.60;43.80;;;;;;5053451;28;45520;-58
2021/01/25 08:08:12;;;;;;;6.97;2.10;;;24.70;43.80;;;;;;5035333;28;45727;-59
2021/01/25 08:10:38;;;;;;;7.18;2.13;;;24.70;43.70;;;;;;5038441;28;46105;-59
2021/01/25 08:13:16;;;;;;;10.82;2.58;;;24.70;43.70;;;;;;5038681;28;45693;-57
2021/01/25 08:16:09;;;;;;;11.15;2.42;;;24.80;44.40;;;;;;5045352;28;45546;-59
2021/01/25 08:18:44;;;;;;;11.07;2.72;;;24.80;43.80;;;;;;5047227;28;45799;-55
2021/01/25 08:21:13;;;;;;;10.65;2.28;;;24.80;43.80;;;;;;5049064;28;45517;-56
2021/01/25 08:23:40;;;;;;;7.50;2.05;;;24.70;43.90;;;;;;5050633;28;45748;-51
2021/01/25 08:26:06;;;;;;;7.63;2.08;;;24.70;44.00;;;;;;5042750;28;45395;-53
2021/01/25 08:28:33;;;;;;;8.00;2.10;;;24.70;44.50;;;;;;5045522;28;45657;-54
2021/01/25 08:31:07;;;;;;;6.22;2.10;;;24.70;44.30;;;;;;5041631;28;45664;-57
2021/01/25 08:33:35;;;;;;;5.22;1.90;;;24.70;44.30;;;;;;5050202;28;45684;-56
2021/01/25 08:36:02;;;;;;;9.95;2.22;;;24.70;44.30;;;;;;5064615;28;45362;-54
2021/01/25 08:38:30;;;;;;;5.95;1.55;;;24.80;44.10;;;;;;5048138;28;45509;-53
2021/01/25 08:40:57;;;;;;;12.13;1.92;;;24.80;44.10;;;;;;5062851;28;46131;-53
2021/01/25 08:43:22;;;;;;;8.35;2.22;;;24.90;43.80;;;;;;5050189;28;45375;-53
2021/01/25 08:45:48;;;;;;;11.88;2.13;;;25.00;43.70;;;;;;5065775;28;45876;-53
2021/01/25 08:48:14;;;;;;;7.80;1.60;;;25.00;43.60;;;;;;5067689;28;45361;-53
2021/01/25 08:50:40;;;;;;;3.42;1.58;;;25.10;43.60;;;;;;5046600;28;46143;-53
2021/01/25 08:53:06;;;;;;;5.47;2.17;;;25.10;43.50;;;;;;5047213;28;45455;-53
2021/01/25 08:55:44;;;;;;;7.32;1.80;;;25.10;43.50;;;;;;5049717;28;45405;-52
2021/01/25 08:58:27;;;;;;;6.03;1.58;;;25.10;43.50;;;;;;5049865;28;45372;-52
2021/01/25 09:00:53;;;;;;;4.65;1.70;;;25.20;43.40;;;;;;5053161;28;46004;-54
2021/01/25 09:03:23;;;;;;;6.55;1.83;;;25.20;43.30;;;;;;5067976;28;45485;-53
2021/01/25 09:05:51;;;;;;;7.75;2.00;;;25.20;43.40;;;;;;5067279;28;45437;-54
2021/01/25 09:08:16;;;;;;;9.27;2.10;;;25.20;43.50;;;;;;5068201;28;45626;-54
2021/01/25 09:10:42;;;;;;;5.15;1.80;;;25.20;43.50;;;;;;5067066;28;46261;-52
2021/01/25 09:13:08;;;;;;;6.65;1.75;;;25.20;43.30;;;;;;5064053;28;45323;-53
2021/01/25 09:15:33;;;;;;;9.35;2.20;;;25.20;43.40;;;;;;5031783;28;45423;-53
2021/01/25 09:17:59;;;;;;;4.85;1.42;;;25.20;43.50;;;;;;5044354;28;45821;-54
2021/01/25 09:20:25;;;;;;;6.18;1.92;;;25.10;43.60;;;;;;5050020;28;46239;-55
2021/01/25 09:22:51;;;;;;;5.47;2.08;;;25.10;43.70;;;;;;5041797;28;45289;-53
2021/01/25 09:25:17;;;;;;;6.03;2.28;;;25.00;43.80;;;;;;5050081;28;45313;-53
2021/01/25 09:27:43;;;;;;;3.88;1.83;;;25.00;44.00;;;;;;5067812;28;45255;-54
2021/01/25 09:30:13;;;;;;;6.82;1.75;;;25.00;43.90;;;;;;5066324;28;45993;-53
2021/01/25 09:32:39;;;;;;;7.93;1.95;;;25.00;44.00;;;;;;5055713;28;45445;-52
2021/01/25 09:35:06;;;;;;;5.78;1.77;;;24.90;44.00;;;;;;5060684;28;45318;-52
2021/01/25 09:37:31;;;;;;;4.15;1.63;;;24.90;43.90;;;;;;5047019;28;45296;-52
2021/01/25 09:39:57;;;;;;;9.00;2.17;;;24.80;43.60;;;;;;5049712;28;45397;-54
2021/01/25 09:42:23;;;;;;;7.22;1.70;;;24.70;43.70;;;;;;5054229;28;45360;-52
2021/01/25 09:44:49;;;;;;;3.00;1.63;;;24.70;43.70;;;;;;5065726;28;45401;-52
2021/01/25 09:47:14;;;;;;;5.53;2.10;;;24.70;43.50;;;;;;5065770;28;45478;-51
2021/01/25 09:49:40;;;;;;;5.93;1.50;;;24.70;43.70;;;;;;5061107;28;48535;-52
2021/01/25 09:52:06;;;;;;;4.30;1.60;;;24.70;43.80;;;;;;5048531;28;45490;-51
2021/01/25 09:54:31;;;;;;;6.57;1.60;;;24.80;43.80;;;;;;5049655;28;46170;-53
2021/01/25 09:56:57;;;;;;;9.95;2.75;;;24.90;43.60;;;;;;5063596;28;46256;-54
2021/01/25 09:59:23;;;;;;;5.00;1.75;;;24.90;43.40;;;;;;5046597;28;46154;-50
2021/01/25 10:01:49;;;;;;;6.97;1.80;;;25.00;43.40;;;;;;5047338;28;45398;-52
2021/01/25 10:04:14;;;;;;;3.13;1.33;;;25.10;43.30;;;;;;5049359;28;45283;-54
2021/01/25 10:06:40;;;;;;;2.80;1.10;;;25.20;43.30;;;;;;5057852;28;45424;-52
2021/01/25 10:09:06;;;;;;;3.63;1.20;;;25.20;43.10;;;;;;5048428;28;46643;-52
2021/01/25 10:11:31;;;;;;;3.80;1.40;;;25.20;43.10;;;;;;5041246;28;45517;-52
2021/01/25 10:13:57;;;;;;;5.50;1.38;;;25.20;43.20;;;;;;5065761;28;45616;-53
2021/01/25 10:16:23;;;;;;;3.63;1.15;;;25.30;43.10;;;;;;5065429;28;45720;-52
2021/01/25 10:18:49;;;;;;;2.95;1.48;;;25.30;43.10;;;;;;5060572;28;46087;-52
2021/01/25 10:21:16;;;;;;;3.00;1.45;;;25.30;43.10;;;;;;5046355;28;45628;-54
2021/01/25 10:23:46;;;;;;;4.30;1.40;;;25.20;43.10;;;;;;5058539;28;45653;-52
2021/01/25 10:26:11;;;;;;;2.65;1.17;;;25.10;43.30;;;;;;5040525;28;45418;-52
2021/01/25 10:28:37;;;;;;;3.08;1.95;;;25.00;43.50;;;;;;5035466;28;46305;-53
2021/01/25 10:31:03;;;;;;;3.22;1.10;;;25.10;43.50;;;;;;5048219;28;45613;-53
2021/01/25 10:33:29;;;;;;;3.15;1.20;;;25.10;43.50;;;;;;5065733;28;45468;-53
2021/01/25 10:35:54;;;;;;;3.40;1.50;;;25.00;44.00;;;;;;5057085;28;45414;-52
2021/01/25 10:38:20;;;;;;;3.35;1.15;;;25.10;43.60;;;;;;5037439;28;46313;-52
2021/01/25 10:40:46;;;;;;;3.53;1.20;;;24.90;43.70;;;;;;5052168;28;45488;-52
2021/01/25 10:43:11;;;;;;;2.75;0.93;;;25.10;43.70;;;;;;5046435;28;45461;-52
2021/01/25 10:45:37;;;;;;;2.10;1.17;;;25.10;43.50;;;;;;5066418;28;45409;-50
2021/01/25 10:48:04;;;;;;;5.82;1.73;;;25.10;43.30;;;;;;5049278;28;45472;-50
2021/01/25 10:50:29;;;;;;;5.35;1.83;;;25.00;43.60;;;;;;5065905;28;45527;-50
2021/01/25 10:52:55;;;;;;;3.50;1.27;;;24.90;43.80;;;;;;5066048;28;45383;-50
2021/01/25 10:55:21;;;;;;;3.53;1.55;;;24.80;44.00;;;;;;5067952;28;45439;-50
2021/01/25 10:57:46;;;;;;;3.53;1.30;;;24.70;44.10;;;;;;5058195;28;45367;-50
2021/01/25 11:00:17;;;;;;;2.97;1.23;;;24.70;44.30;;;;;;5050722;28;45215;-50
2021/01/25 11:02:42;;;;;;;3.42;1.52;;;24.60;44.40;;;;;;5055580;28;45432;-50
2021/01/25 11:05:09;;;;;;;4.63;1.40;;;24.50;44.40;;;;;;5066049;28;45518;-50
2021/01/25 11:07:36;;;;;;;4.72;1.38;;;24.50;44.60;;;;;;5034495;28;46256;-50
2021/01/25 11:10:03;;;;;;;3.60;1.33;;;24.50;44.80;;;;;;5045723;28;45292;-50
2021/01/25 11:12:28;;;;;;;3.50;1.33;;;24.40;44.70;;;;;;5045318;28;45490;-50
2021/01/25 11:14:54;;;;;;;4.40;1.40;;;24.40;44.80;;;;;;5054327;28;45517;-51
2021/01/25 11:17:20;;;;;;;5.32;1.42;;;24.40;44.80;;;;;;5064064;28;46704;-51
2021/01/25 11:19:46;;;;;;;5.45;2.03;;;24.40;44.90;;;;;;5065579;28;45433;-50
2021/01/25 11:22:12;;;;;;;5.63;1.27;;;24.40;45.10;;;;;;5048061;28;45412;-50
2021/01/25 11:24:37;;;;;;;5.05;1.30;;;24.30;45.00;;;;;;5062652;28;45601;-49
2021/01/25 11:27:05;;;;;;;7.80;1.50;;;24.20;45.10;;;;;;5048306;28;45492;-50
2021/01/25 11:29:31;;;;;;;3.28;1.50;;;24.10;45.10;;;;;;5063284;28;45336;-50
2021/01/25 11:32:04;;;;;;;4.60;1.50;;;24.10;45.10;;;;;;5061665;28;45370;-50
2021/01/25 11:34:30;;;;;;;5.75;1.98;;;24.00;45.20;;;;;;5065245;28;45469;-50
2021/01/25 11:36:56;;;;;;;6.43;1.88;;;24.00;45.20;;;;;;5064495;28;45295;-50
2021/01/25 11:39:23;;;;;;;3.53;1.20;;;23.90;45.40;;;;;;5048068;28;45413;-50
2021/01/25 11:41:48;;;;;;;4.75;1.48;;;23.90;45.50;;;;;;5048703;28;45524;-50
2021/01/25 11:44:14;;;;;;;5.40;1.77;;;23.90;45.50;;;;;;5048869;28;45625;-49
2021/01/25 11:46:40;;;;;;;3.92;1.42;;;23.80;45.50;;;;;;5048153;28;46136;-49
2021/01/25 11:49:05;;;;;;;3.20;1.35;;;23.80;45.50;;;;;;5041879;28;45681;-50
2021/01/25 11:51:31;;;;;;;3.42;1.23;;;23.70;45.50;;;;;;5063812;28;45382;-52
2021/01/25 11:53:57;;;;;;;9.10;2.55;;;23.70;45.60;;;;;;5065566;28;45460;-52
2021/01/25 11:56:22;;;;;;;5.55;2.78;;;23.70;44.80;;;;;;5065363;28;45334;-53
2021/01/25 11:58:48;;;;;;;9.52;4.35;;;23.70;43.20;;;;;;5064330;28;45432;-51
2021/01/25 12:01:14;;;;;;;8.80;3.20;;;23.60;41.10;;;;;;5068166;28;45393;-53
2021/01/25 12:03:39;;;;;;;6.95;2.80;;;23.70;40.70;;;;;;5051797;28;45499;-50
2021/01/25 12:06:05;;;;;;;6.30;2.40;;;23.70;40.80;;;;;;5057082;28;45511;-49
2021/01/25 12:08:35;;;;;;;8.73;3.67;;;23.70;41.50;;;;;;5054527;28;45138;-51
2021/01/25 12:11:04;;;;;;;5.53;2.58;;;23.70;42.70;;;;;;5059276;28;45433;-50
2021/01/25 12:13:30;;;;;;;6.47;2.53;;;23.80;42.80;;;;;;5067540;28;45616;-49
2021/01/25 12:15:55;;;;;;;8.20;3.35;;;23.90;42.90;;;;;;5046809;28;45489;-51
2021/01/25 12:18:21;;;;;;;8.48;3.00;;;23.90;42.80;;;;;;5064437;28;45288;-50
2021/01/25 12:20:47;;;;;;;7.15;3.42;;;24.00;42.90;;;;;;5046428;28;45450;-50
2021/01/25 12:23:13;;;;;;;8.63;3.50;;;24.10;42.90;;;;;;5040912;28;45304;-54
2021/01/25 12:25:39;;;;;;;8.05;4.00;;;24.10;43.00;;;;;;5047927;28;45706;-50
2021/01/25 12:28:05;;;;;;;13.45;4.20;;;24.10;43.20;;;;;;5054731;28;45336;-51
2021/01/25 12:30:30;;;;;;;6.45;3.08;;;24.10;43.60;;;;;;5068040;28;45648;-51
2021/01/25 12:32:56;;;;;;;9.77;4.10;;;24.10;43.50;;;;;;5065924;28;45386;-51
2021/01/25 12:35:22;;;;;;;9.65;3.90;;;24.20;43.60;;;;;;5041020;28;46125;-50
2021/01/25 12:37:50;;;;;;;11.65;4.13;;;24.10;43.60;;;;;;5051285;28;45363;-50
2021/01/25 12:40:16;;;;;;;7.90;3.38;;;24.10;43.80;;;;;;5067516;28;45366;-50
2021/01/25 12:42:41;;;;;;;7.10;3.45;;;24.10;43.80;;;;;;5067420;28;45490;-51
2021/01/25 12:45:08;;;;;;;12.27;3.72;;;24.20;43.90;;;;;;5050784;28;46354;-51